Columbus, GA

9:16 PM EST on January 27, 2015 (GMT -0500)
RoseParadiseFarm Hwy 36 | Change Station
CLOSE
Current Station
Personal Weather Station
Location: Waverly Hall, GA
Elevation: 804 ft
Nearby Weather Stations

Elev 804 ft 32.70 °N, 84.70 °W | Updated 1 second ago

Clear
Clear
41.0 °F
Feels Like 41 °F
N
0.0
Wind Variable Wind from North
Gusts 2.0 mph

Today
High -- | Low -- °F
--% Chance of Precip.
Yesterday
High -- | Low -- °F
Precip. -- in
7:36 AM 6:07 PM
First Quarter, 60% visible
Pressure 30.08 in
Visibility 10.0 miles
Clouds Clear
Windchill 41 °F
Dew Point 30 °F
Humidity 65%
Rainfall 0.00 in
Snow Depth Not available.
UV 0 out of 12
Pollen 3.60 out of 12
Air Quality Not available.
Flu Activity Not available.
METAR KCSG 280151Z 35006KT 10SM CLR 09/M02 A3008 RMK AO2 SLP186 T00891022

More Conditions Fewer Conditions

Pressure 30.08 in
Visibility 10.0 miles
Clouds Clear
Windchill 41 °F
Dew Point 30 °F
Humidity 65%
Rainfall 0.00 in
Snow Depth Not available.
UV 0 out of 12
Pollen 3.60 out of 12
Air Quality Not available.
Flu Activity Not available.
METAR KCSG 280151Z 35006KT 10SM CLR 09/M02 A3008 RMK AO2 SLP186 T00891022

More Conditions Fewer Conditions

10-Day Weather Forecast

Almanac

Astronomy

Jan. 27, 2015 Rise Set
Actual Time
Civil Twilight
Nautical Twilight
Astronomical Twilight
Moon
Length of Visible Light
Length of Day
Tomorrow will be .
, % of the Moon is Illuminated

Today's Extremes

State Highs State Lows

Community

WunderPhotos

Upload Photos

1,791,048 photos uploaded!

WunderBlogs® & News

Nearby

Air Quality

  Air Quality AQ Index Pollutant
Not available.

Snow Depth

Station Depth Elevation

Earthquake Activity

City Distance Mag. Time & Date
Minimum magnitude displayed is 2.5.

Coastal Water Temperatures

Place Temperature

Nearby Weather Stations